sensor_id;sensor_type;location;lat;lon;timestamp;P1;durP1;ratioP1;P2;durP2;ratioP2
60014;SDS011;45867;52.480;6.056;2023-11-21T00:00:20;46.80;;;16.50;;
60014;SDS011;45867;52.480;6.056;2023-11-21T00:02:49;46.38;;;17.67;;
60014;SDS011;45867;52.480;6.056;2023-11-21T00:05:16;42.53;;;16.75;;
60014;SDS011;45867;52.480;6.056;2023-11-21T00:07:43;44.97;;;16.52;;
60014;SDS011;45867;52.480;6.056;2023-11-21T00:10:12;43.58;;;16.52;;
60014;SDS011;45867;52.480;6.056;2023-11-21T00:12:39;51.85;;;16.38;;
60014;SDS011;45867;52.480;6.056;2023-11-21T00:15:06;46.53;;;18.52;;
60014;SDS011;45867;52.480;6.056;2023-11-21T00:17:33;53.42;;;16.88;;
60014;SDS011;45867;52.480;6.056;2023-11-21T00:20:05;43.67;;;17.40;;
60014;SDS011;45867;52.480;6.056;2023-11-21T00:22:33;40.58;;;16.00;;
60014;SDS011;45867;52.480;6.056;2023-11-21T00:25:01;54.90;;;17.98;;
60014;SDS011;45867;52.480;6.056;2023-11-21T00:27:28;52.17;;;17.70;;
60014;SDS011;45867;52.480;6.056;2023-11-21T00:29:55;52.63;;;17.30;;
60014;SDS011;45867;52.480;6.056;2023-11-21T00:32:24;45.08;;;17.10;;
60014;SDS011;45867;52.480;6.056;2023-11-21T00:34:51;47.83;;;17.65;;
60014;SDS011;45867;52.480;6.056;2023-11-21T00:37:17;50.17;;;17.90;;
60014;SDS011;45867;52.480;6.056;2023-11-21T00:39:45;59.80;;;18.77;;
60014;SDS011;45867;52.480;6.056;2023-11-21T00:42:12;50.40;;;17.27;;
60014;SDS011;45867;52.480;6.056;2023-11-21T00:44:38;51.72;;;18.17;;
60014;SDS011;45867;52.480;6.056;2023-11-21T00:47:07;46.72;;;17.55;;
60014;SDS011;45867;52.480;6.056;2023-11-21T00:49:36;53.42;;;19.10;;
60014;SDS011;45867;52.480;6.056;2023-11-21T00:52:03;57.38;;;18.45;;
60014;SDS011;45867;52.480;6.056;2023-11-21T00:54:33;59.47;;;19.02;;
60014;SDS011;45867;52.480;6.056;2023-11-21T00:57:02;59.63;;;18.77;;
60014;SDS011;45867;52.480;6.056;2023-11-21T00:59:29;58.83;;;19.10;;
60014;SDS011;45867;52.480;6.056;2023-11-21T01:01:56;58.45;;;19.70;;
60014;SDS011;45867;52.480;6.056;2023-11-21T01:04:24;51.97;;;18.80;;
60014;SDS011;45867;52.480;6.056;2023-11-21T01:06:51;49.25;;;18.00;;
60014;SDS011;45867;52.480;6.056;2023-11-21T01:09:17;57.83;;;19.30;;
60014;SDS011;45867;52.480;6.056;2023-11-21T01:11:44;58.15;;;18.60;;
60014;SDS011;45867;52.480;6.056;2023-11-21T01:14:13;53.58;;;18.63;;
60014;SDS011;45867;52.480;6.056;2023-11-21T01:16:42;54.17;;;19.05;;
60014;SDS011;45867;52.480;6.056;2023-11-21T01:19:09;46.92;;;18.17;;
60014;SDS011;45867;52.480;6.056;2023-11-21T01:21:38;55.30;;;18.17;;
60014;SDS011;45867;52.480;6.056;2023-11-21T01:24:05;48.30;;;18.38;;
60014;SDS011;45867;52.480;6.056;2023-11-21T01:26:32;58.13;;;17.95;;
60014;SDS011;45867;52.480;6.056;2023-11-21T01:28:58;55.75;;;17.33;;
60014;SDS011;45867;52.480;6.056;2023-11-21T01:31:25;60.35;;;18.67;;
60014;SDS011;45867;52.480;6.056;2023-11-21T01:33:51;45.55;;;17.73;;
60014;SDS011;45867;52.480;6.056;2023-11-21T01:36:18;52.17;;;18.77;;
60014;SDS011;45867;52.480;6.056;2023-11-21T01:38:44;54.85;;;17.80;;
60014;SDS011;45867;52.480;6.056;2023-11-21T01:41:14;49.80;;;17.83;;
60014;SDS011;45867;52.480;6.056;2023-11-21T01:43:40;47.60;;;16.80;;
60014;SDS011;45867;52.480;6.056;2023-11-21T01:46:08;46.15;;;17.02;;
60014;SDS011;45867;52.480;6.056;2023-11-21T01:48:35;47.70;;;16.23;;
60014;SDS011;45867;52.480;6.056;2023-11-21T01:51:02;42.58;;;17.02;;
60014;SDS011;45867;52.480;6.056;2023-11-21T01:53:29;47.25;;;17.17;;
60014;SDS011;45867;52.480;6.056;2023-11-21T01:55:58;52.85;;;16.70;;
60014;SDS011;45867;52.480;6.056;2023-11-21T01:58:27;53.53;;;15.43;;
60014;SDS011;45867;52.480;6.056;2023-11-21T02:00:54;54.83;;;17.00;;
60014;SDS011;45867;52.480;6.056;2023-11-21T02:03:21;55.03;;;16.65;;
60014;SDS011;45867;52.480;6.056;2023-11-21T02:05:48;46.55;;;16.60;;
60014;SDS011;45867;52.480;6.056;2023-11-21T02:08:14;47.25;;;15.32;;
60014;SDS011;45867;52.480;6.056;2023-11-21T02:10:44;46.30;;;16.20;;
60014;SDS011;45867;52.480;6.056;2023-11-21T02:13:10;51.15;;;16.15;;
60014;SDS011;45867;52.480;6.056;2023-11-21T02:15:37;44.88;;;15.98;;
60014;SDS011;45867;52.480;6.056;2023-11-21T02:18:04;46.03;;;15.55;;
60014;SDS011;45867;52.480;6.056;2023-11-21T02:20:31;48.42;;;15.38;;
60014;SDS011;45867;52.480;6.056;2023-11-21T02:22:58;49.42;;;16.55;;
60014;SDS011;45867;52.480;6.056;2023-11-21T02:25:28;43.05;;;16.05;;
60014;SDS011;45867;52.480;6.056;2023-11-21T02:27:56;51.05;;;15.20;;
60014;SDS011;45867;52.480;6.056;2023-11-21T02:30:24;38.05;;;14.07;;
60014;SDS011;45867;52.480;6.056;2023-11-21T02:32:51;48.28;;;15.30;;
60014;SDS011;45867;52.480;6.056;2023-11-21T02:35:18;45.20;;;15.48;;
60014;SDS011;45867;52.480;6.056;2023-11-21T02:37:45;44.55;;;15.30;;
60014;SDS011;45867;52.480;6.056;2023-11-21T02:40:15;45.63;;;14.80;;
60014;SDS011;45867;52.480;6.056;2023-11-21T02:42:53;37.53;;;14.23;;
60014;SDS011;45867;52.480;6.056;2023-11-21T02:45:20;52.47;;;15.13;;
60014;SDS011;45867;52.480;6.056;2023-11-21T02:47:48;50.55;;;13.70;;
60014;SDS011;45867;52.480;6.056;2023-11-21T02:50:15;35.85;;;13.43;;
60014;SDS011;45867;52.480;6.056;2023-11-21T02:52:43;50.45;;;13.85;;
60014;SDS011;45867;52.480;6.056;2023-11-21T02:55:10;44.35;;;14.70;;
60014;SDS011;45867;52.480;6.056;2023-11-21T02:57:38;42.88;;;14.50;;
60014;SDS011;45867;52.480;6.056;2023-11-21T03:00:05;49.65;;;14.25;;
60014;SDS011;45867;52.480;6.056;2023-11-21T03:02:38;40.15;;;14.32;;
60014;SDS011;45867;52.480;6.056;2023-11-21T03:05:06;41.03;;;14.73;;
60014;SDS011;45867;52.480;6.056;2023-11-21T03:07:32;48.70;;;14.85;;
60014;SDS011;45867;52.480;6.056;2023-11-21T03:09:59;41.67;;;13.90;;
60014;SDS011;45867;52.480;6.056;2023-11-21T03:12:26;38.45;;;14.02;;
60014;SDS011;45867;52.480;6.056;2023-11-21T03:14:52;38.70;;;13.43;;
60014;SDS011;45867;52.480;6.056;2023-11-21T03:17:19;41.83;;;12.93;;
60014;SDS011;45867;52.480;6.056;2023-11-21T03:19:45;43.70;;;13.80;;
60014;SDS011;45867;52.480;6.056;2023-11-21T03:22:11;42.00;;;13.25;;
60014;SDS011;45867;52.480;6.056;2023-11-21T03:24:38;50.08;;;14.63;;
60014;SDS011;45867;52.480;6.056;2023-11-21T03:27:04;43.03;;;13.88;;
60014;SDS011;45867;52.480;6.056;2023-11-21T03:29:33;40.40;;;13.40;;
60014;SDS011;45867;52.480;6.056;2023-11-21T03:32:03;36.85;;;13.00;;
60014;SDS011;45867;52.480;6.056;2023-11-21T03:34:30;45.03;;;14.80;;
60014;SDS011;45867;52.480;6.056;2023-11-21T03:36:57;37.00;;;12.27;;
60014;SDS011;45867;52.480;6.056;2023-11-21T03:39:26;38.30;;;13.63;;
60014;SDS011;45867;52.480;6.056;2023-11-21T03:41:53;36.10;;;12.57;;
60014;SDS011;45867;52.480;6.056;2023-11-21T03:44:23;52.00;;;13.45;;
60014;SDS011;45867;52.480;6.056;2023-11-21T03:46:49;42.33;;;14.18;;
60014;SDS011;45867;52.480;6.056;2023-11-21T03:49:19;51.08;;;13.35;;
60014;SDS011;45867;52.480;6.056;2023-11-21T03:51:45;50.53;;;13.70;;
60014;SDS011;45867;52.480;6.056;2023-11-21T03:54:12;48.28;;;13.35;;
60014;SDS011;45867;52.480;6.056;2023-11-21T03:56:39;43.90;;;14.02;;
60014;SDS011;45867;52.480;6.056;2023-11-21T03:59:08;38.85;;;13.98;;
60014;SDS011;45867;52.480;6.056;2023-11-21T04:01:35;43.33;;;13.75;;
60014;SDS011;45867;52.480;6.056;2023-11-21T04:04:01;47.78;;;14.27;;
60014;SDS011;45867;52.480;6.056;2023-11-21T04:06:28;54.22;;;14.23;;
60014;SDS011;45867;52.480;6.056;2023-11-21T04:08:54;38.15;;;13.90;;
60014;SDS011;45867;52.480;6.056;2023-11-21T04:11:21;36.40;;;12.10;;
60014;SDS011;45867;52.480;6.056;2023-11-21T04:13:48;37.15;;;12.75;;
60014;SDS011;45867;52.480;6.056;2023-11-21T04:16:14;40.75;;;14.50;;
60014;SDS011;45867;52.480;6.056;2023-11-21T04:18:41;43.03;;;13.75;;
60014;SDS011;45867;52.480;6.056;2023-11-21T04:21:07;43.15;;;13.10;;
60014;SDS011;45867;52.480;6.056;2023-11-21T04:23:35;46.55;;;13.27;;
60014;SDS011;45867;52.480;6.056;2023-11-21T04:26:02;47.22;;;13.75;;
60014;SDS011;45867;52.480;6.056;2023-11-21T04:28:28;39.83;;;13.48;;
60014;SDS011;45867;52.480;6.056;2023-11-21T04:30:55;40.85;;;13.98;;
60014;SDS011;45867;52.480;6.056;2023-11-21T04:33:22;43.40;;;14.02;;
60014;SDS011;45867;52.480;6.056;2023-11-21T04:35:48;39.58;;;11.93;;
60014;SDS011;45867;52.480;6.056;2023-11-21T04:38:20;49.97;;;12.90;;
60014;SDS011;45867;52.480;6.056;2023-11-21T04:40:50;48.97;;;14.27;;
60014;SDS011;45867;52.480;6.056;2023-11-21T04:43:16;52.67;;;13.60;;
60014;SDS011;45867;52.480;6.056;2023-11-21T04:45:48;47.08;;;13.98;;
60014;SDS011;45867;52.480;6.056;2023-11-21T04:48:15;45.60;;;15.02;;
60014;SDS011;45867;52.480;6.056;2023-11-21T04:50:42;45.05;;;14.30;;
60014;SDS011;45867;52.480;6.056;2023-11-21T04:53:08;37.65;;;13.65;;
60014;SDS011;45867;52.480;6.056;2023-11-21T04:55:35;51.50;;;13.98;;
60014;SDS011;45867;52.480;6.056;2023-11-21T04:58:01;46.20;;;14.68;;
60014;SDS011;45867;52.480;6.056;2023-11-21T05:00:28;41.40;;;14.45;;
60014;SDS011;45867;52.480;6.056;2023-11-21T05:02:54;37.33;;;14.02;;
60014;SDS011;45867;52.480;6.056;2023-11-21T05:05:21;48.38;;;14.68;;
60014;SDS011;45867;52.480;6.056;2023-11-21T05:07:51;42.15;;;15.15;;
60014;SDS011;45867;52.480;6.056;2023-11-21T05:10:20;38.97;;;13.90;;
60014;SDS011;45867;52.480;6.056;2023-11-21T05:12:49;48.40;;;14.70;;
60014;SDS011;45867;52.480;6.056;2023-11-21T05:15:20;45.80;;;14.95;;
60014;SDS011;45867;52.480;6.056;2023-11-21T05:17:49;47.33;;;14.68;;
60014;SDS011;45867;52.480;6.056;2023-11-21T05:20:18;45.70;;;15.25;;
60014;SDS011;45867;52.480;6.056;2023-11-21T05:22:49;54.20;;;14.57;;
60014;SDS011;45867;52.480;6.056;2023-11-21T05:25:16;47.80;;;15.15;;
60014;SDS011;45867;52.480;6.056;2023-11-21T05:27:46;58.50;;;16.13;;
60014;SDS011;45867;52.480;6.056;2023-11-21T05:30:16;55.22;;;15.80;;
60014;SDS011;45867;52.480;6.056;2023-11-21T05:32:46;53.00;;;15.80;;
60014;SDS011;45867;52.480;6.056;2023-11-21T05:35:15;45.47;;;15.23;;
60014;SDS011;45867;52.480;6.056;2023-11-21T05:37:43;45.30;;;16.92;;
60014;SDS011;45867;52.480;6.056;2023-11-21T05:40:10;39.47;;;15.55;;
60014;SDS011;45867;52.480;6.056;2023-11-21T05:42:38;44.47;;;16.17;;
60014;SDS011;45867;52.480;6.056;2023-11-21T05:45:06;43.17;;;14.35;;
60014;SDS011;45867;52.480;6.056;2023-11-21T05:47:33;46.38;;;15.18;;
60014;SDS011;45867;52.480;6.056;2023-11-21T05:50:04;46.25;;;16.27;;
60014;SDS011;45867;52.480;6.056;2023-11-21T05:52:42;45.42;;;15.40;;
60014;SDS011;45867;52.480;6.056;2023-11-21T05:55:10;48.00;;;14.63;;
60014;SDS011;45867;52.480;6.056;2023-11-21T05:57:38;46.40;;;15.88;;
60014;SDS011;45867;52.480;6.056;2023-11-21T06:00:06;42.90;;;14.98;;
60014;SDS011;45867;52.480;6.056;2023-11-21T06:02:41;45.55;;;15.73;;
60014;SDS011;45867;52.480;6.056;2023-11-21T06:05:22;44.00;;;15.93;;
60014;SDS011;45867;52.480;6.056;2023-11-21T06:07:54;37.78;;;15.00;;
60014;SDS011;45867;52.480;6.056;2023-11-21T06:10:22;47.88;;;15.25;;
60014;SDS011;45867;52.480;6.056;2023-11-21T06:12:49;39.55;;;15.40;;
60014;SDS011;45867;52.480;6.056;2023-11-21T06:15:19;41.58;;;15.43;;
60014;SDS011;45867;52.480;6.056;2023-11-21T06:17:46;40.53;;;14.63;;
60014;SDS011;45867;52.480;6.056;2023-11-21T06:20:14;31.58;;;13.88;;
60014;SDS011;45867;52.480;6.056;2023-11-21T06:22:42;39.45;;;15.90;;
60014;SDS011;45867;52.480;6.056;2023-11-21T06:25:12;44.83;;;15.95;;
60014;SDS011;45867;52.480;6.056;2023-11-21T06:27:45;35.40;;;14.23;;
60014;SDS011;45867;52.480;6.056;2023-11-21T06:30:15;45.58;;;14.95;;
60014;SDS011;45867;52.480;6.056;2023-11-21T06:32:50;43.17;;;14.80;;
60014;SDS011;45867;52.480;6.056;2023-11-21T06:35:20;45.35;;;15.13;;
60014;SDS011;45867;52.480;6.056;2023-11-21T06:37:50;45.55;;;16.30;;
60014;SDS011;45867;52.480;6.056;2023-11-21T06:40:22;43.20;;;15.68;;
60014;SDS011;45867;52.480;6.056;2023-11-21T06:42:50;37.28;;;15.93;;
60014;SDS011;45867;52.480;6.056;2023-11-21T06:45:20;50.10;;;15.32;;
60014;SDS011;45867;52.480;6.056;2023-11-21T06:47:49;41.92;;;15.13;;
60014;SDS011;45867;52.480;6.056;2023-11-21T06:50:23;49.90;;;15.60;;
60014;SDS011;45867;52.480;6.056;2023-11-21T06:52:49;47.17;;;16.35;;
60014;SDS011;45867;52.480;6.056;2023-11-21T06:55:21;51.13;;;15.95;;
60014;SDS011;45867;52.480;6.056;2023-11-21T06:57:56;41.70;;;14.88;;
60014;SDS011;45867;52.480;6.056;2023-11-21T07:00:23;41.70;;;15.55;;
60014;SDS011;45867;52.480;6.056;2023-11-21T07:02:50;35.03;;;14.90;;
60014;SDS011;45867;52.480;6.056;2023-11-21T07:05:20;41.60;;;15.57;;
60014;SDS011;45867;52.480;6.056;2023-11-21T07:07:51;42.67;;;15.50;;
60014;SDS011;45867;52.480;6.056;2023-11-21T07:10:25;42.08;;;14.75;;
60014;SDS011;45867;52.480;6.056;2023-11-21T07:12:51;41.50;;;14.05;;
60014;SDS011;45867;52.480;6.056;2023-11-21T07:15:22;35.67;;;14.60;;
60014;SDS011;45867;52.480;6.056;2023-11-21T07:17:51;40.28;;;14.68;;
60014;SDS011;45867;52.480;6.056;2023-11-21T07:20:19;38.72;;;14.88;;
60014;SDS011;45867;52.480;6.056;2023-11-21T07:22:51;43.22;;;15.65;;
60014;SDS011;45867;52.480;6.056;2023-11-21T07:25:21;46.58;;;15.68;;
60014;SDS011;45867;52.480;6.056;2023-11-21T07:27:50;49.05;;;16.38;;
60014;SDS011;45867;52.480;6.056;2023-11-21T07:30:20;44.25;;;16.60;;
60014;SDS011;45867;52.480;6.056;2023-11-21T07:32:46;40.53;;;15.77;;
60014;SDS011;45867;52.480;6.056;2023-11-21T07:35:22;48.80;;;16.75;;
60014;SDS011;45867;52.480;6.056;2023-11-21T07:38:08;50.97;;;18.38;;
60014;SDS011;45867;52.480;6.056;2023-11-21T07:40:35;43.17;;;18.02;;
60014;SDS011;45867;52.480;6.056;2023-11-21T07:43:05;51.10;;;18.40;;
60014;SDS011;45867;52.480;6.056;2023-11-21T07:45:35;55.60;;;16.98;;
60014;SDS011;45867;52.480;6.056;2023-11-21T07:48:05;45.88;;;17.45;;
60014;SDS011;45867;52.480;6.056;2023-11-21T07:50:34;52.60;;;19.30;;
60014;SDS011;45867;52.480;6.056;2023-11-21T07:53:01;48.75;;;19.10;;
60014;SDS011;45867;52.480;6.056;2023-11-21T07:55:27;48.25;;;18.25;;
60014;SDS011;45867;52.480;6.056;2023-11-21T07:58:04;53.53;;;17.92;;
60014;SDS011;45867;52.480;6.056;2023-11-21T08:00:30;49.30;;;18.52;;
60014;SDS011;45867;52.480;6.056;2023-11-21T08:03:00;53.35;;;18.65;;
60014;SDS011;45867;52.480;6.056;2023-11-21T08:05:29;53.45;;;17.17;;
60014;SDS011;45867;52.480;6.056;2023-11-21T08:08:05;53.83;;;17.05;;
60014;SDS011;45867;52.480;6.056;2023-11-21T08:10:31;67.70;;;17.95;;
60014;SDS011;45867;52.480;6.056;2023-11-21T08:12:58;47.88;;;17.10;;
60014;SDS011;45867;52.480;6.056;2023-11-21T08:15:24;53.53;;;18.52;;
60014;SDS011;45867;52.480;6.056;2023-11-21T08:17:51;54.95;;;17.60;;
60014;SDS011;45867;52.480;6.056;2023-11-21T08:20:20;46.13;;;16.45;;
60014;SDS011;45867;52.480;6.056;2023-11-21T08:22:51;52.25;;;16.75;;
60014;SDS011;45867;52.480;6.056;2023-11-21T08:25:20;44.42;;;15.68;;
60014;SDS011;45867;52.480;6.056;2023-11-21T08:27:53;46.33;;;15.80;;
60014;SDS011;45867;52.480;6.056;2023-11-21T08:30:19;52.45;;;16.63;;
60014;SDS011;45867;52.480;6.056;2023-11-21T08:32:46;41.47;;;15.05;;
60014;SDS011;45867;52.480;6.056;2023-11-21T08:35:20;45.97;;;15.52;;
60014;SDS011;45867;52.480;6.056;2023-11-21T08:37:48;44.38;;;14.32;;
60014;SDS011;45867;52.480;6.056;2023-11-21T08:40:19;44.42;;;14.40;;
60014;SDS011;45867;52.480;6.056;2023-11-21T08:42:46;40.22;;;13.57;;
60014;SDS011;45867;52.480;6.056;2023-11-21T08:45:15;40.85;;;12.38;;
60014;SDS011;45867;52.480;6.056;2023-11-21T08:47:41;41.42;;;12.77;;
60014;SDS011;45867;52.480;6.056;2023-11-21T08:50:08;43.67;;;12.60;;
60014;SDS011;45867;52.480;6.056;2023-11-21T08:52:38;37.15;;;12.55;;
60014;SDS011;45867;52.480;6.056;2023-11-21T08:55:05;38.80;;;13.02;;
60014;SDS011;45867;52.480;6.056;2023-11-21T08:57:31;27.27;;;11.40;;
60014;SDS011;45867;52.480;6.056;2023-11-21T09:00:02;30.75;;;11.30;;
60014;SDS011;45867;52.480;6.056;2023-11-21T09:02:39;33.78;;;11.65;;
60014;SDS011;45867;52.480;6.056;2023-11-21T09:05:11;38.55;;;11.75;;
60014;SDS011;45867;52.480;6.056;2023-11-21T09:07:41;31.13;;;12.48;;
60014;SDS011;45867;52.480;6.056;2023-11-21T09:10:09;33.78;;;11.43;;
60014;SDS011;45867;52.480;6.056;2023-11-21T09:12:36;28.52;;;10.82;;
60014;SDS011;45867;52.480;6.056;2023-11-21T09:15:04;28.05;;;10.82;;
60014;SDS011;45867;52.480;6.056;2023-11-21T09:17:37;22.73;;;9.82;;
60014;SDS011;45867;52.480;6.056;2023-11-21T09:20:04;23.85;;;10.60;;
60014;SDS011;45867;52.480;6.056;2023-11-21T09:22:31;22.35;;;9.68;;
60014;SDS011;45867;52.480;6.056;2023-11-21T09:24:58;21.00;;;9.65;;
60014;SDS011;45867;52.480;6.056;2023-11-21T09:27:25;25.48;;;9.43;;
60014;SDS011;45867;52.480;6.056;2023-11-21T09:29:53;21.63;;;9.18;;
60014;SDS011;45867;52.480;6.056;2023-11-21T09:32:20;20.33;;;9.32;;
60014;SDS011;45867;52.480;6.056;2023-11-21T09:34:48;25.35;;;10.07;;
60014;SDS011;45867;52.480;6.056;2023-11-21T09:37:15;28.67;;;10.73;;
60014;SDS011;45867;52.480;6.056;2023-11-21T09:39:44;20.88;;;9.15;;
60014;SDS011;45867;52.480;6.056;2023-11-21T09:42:23;24.20;;;10.15;;
60014;SDS011;45867;52.480;6.056;2023-11-21T09:44:59;22.65;;;9.75;;
60014;SDS011;45867;52.480;6.056;2023-11-21T09:47:50;23.67;;;9.93;;
60014;SDS011;45867;52.480;6.056;2023-11-21T09:50:19;25.48;;;11.65;;
60014;SDS011;45867;52.480;6.056;2023-11-21T09:58:16;25.00;;;11.70;;
60014;SDS011;45867;52.480;6.056;2023-11-21T10:00:55;30.27;;;11.45;;
60014;SDS011;45867;52.480;6.056;2023-11-21T10:03:27;27.38;;;11.77;;
60014;SDS011;45867;52.480;6.056;2023-11-21T10:05:59;26.60;;;11.15;;
60014;SDS011;45867;52.480;6.056;2023-11-21T10:08:30;24.90;;;11.75;;
60014;SDS011;45867;52.480;6.056;2023-11-21T10:11:20;28.88;;;11.50;;
60014;SDS011;45867;52.480;6.056;2023-11-21T10:13:53;22.02;;;10.68;;
60014;SDS011;45867;52.480;6.056;2023-11-21T10:16:25;24.85;;;10.98;;
60014;SDS011;45867;52.480;6.056;2023-11-21T10:18:52;27.05;;;11.70;;
60014;SDS011;45867;52.480;6.056;2023-11-21T10:21:39;23.23;;;11.00;;
60014;SDS011;45867;52.480;6.056;2023-11-21T10:24:06;26.55;;;11.13;;
60014;SDS011;45867;52.480;6.056;2023-11-21T10:26:39;26.20;;;11.52;;
60014;SDS011;45867;52.480;6.056;2023-11-21T10:29:21;26.83;;;11.93;;
60014;SDS011;45867;52.480;6.056;2023-11-21T10:31:49;21.90;;;11.02;;
60014;SDS011;45867;52.480;6.056;2023-11-21T10:34:19;21.08;;;11.20;;
60014;SDS011;45867;52.480;6.056;2023-11-21T10:36:50;30.23;;;12.07;;
60014;SDS011;45867;52.480;6.056;2023-11-21T10:39:19;26.08;;;11.35;;
60014;SDS011;45867;52.480;6.056;2023-11-21T10:41:46;21.67;;;10.10;;
60014;SDS011;45867;52.480;6.056;2023-11-21T10:44:17;25.02;;;10.60;;
60014;SDS011;45867;52.480;6.056;2023-11-21T10:46:51;22.50;;;10.57;;
60014;SDS011;45867;52.480;6.056;2023-11-21T10:49:18;25.02;;;10.30;;
60014;SDS011;45867;52.480;6.056;2023-11-21T10:51:49;21.83;;;10.10;;
60014;SDS011;45867;52.480;6.056;2023-11-21T10:54:22;21.13;;;10.23;;
60014;SDS011;45867;52.480;6.056;2023-11-21T10:56:59;19.38;;;9.00;;
60014;SDS011;45867;52.480;6.056;2023-11-21T10:59:50;21.77;;;10.13;;
60014;SDS011;45867;52.480;6.056;2023-11-21T11:02:26;22.73;;;9.75;;
60014;SDS011;45867;52.480;6.056;2023-11-21T11:04:54;20.52;;;9.05;;
60014;SDS011;45867;52.480;6.056;2023-11-21T11:07:26;24.15;;;10.00;;
60014;SDS011;45867;52.480;6.056;2023-11-21T11:09:54;33.10;;;9.98;;
60014;SDS011;45867;52.480;6.056;2023-11-21T11:12:20;23.10;;;9.27;;
60014;SDS011;45867;52.480;6.056;2023-11-21T11:14:57;25.95;;;8.38;;
60014;SDS011;45867;52.480;6.056;2023-11-21T11:17:26;25.73;;;8.80;;
60014;SDS011;45867;52.480;6.056;2023-11-21T11:19:53;23.25;;;9.23;;
60014;SDS011;45867;52.480;6.056;2023-11-21T11:22:34;15.18;;;7.32;;
60014;SDS011;45867;52.480;6.056;2023-11-21T11:28:11;14.50;;;6.40;;
60014;SDS011;45867;52.480;6.056;2023-11-21T11:31:00;12.02;;;5.43;;
60014;SDS011;45867;52.480;6.056;2023-11-21T11:36:24;16.58;;;6.13;;
60014;SDS011;45867;52.480;6.056;2023-11-21T11:39:00;21.60;;;8.43;;
60014;SDS011;45867;52.480;6.056;2023-11-21T11:41:31;24.50;;;9.43;;
60014;SDS011;45867;52.480;6.056;2023-11-21T11:43:59;22.90;;;9.32;;
60014;SDS011;45867;52.480;6.056;2023-11-21T11:46:45;27.55;;;10.50;;
60014;SDS011;45867;52.480;6.056;2023-11-21T11:49:32;27.88;;;10.57;;
60014;SDS011;45867;52.480;6.056;2023-11-21T11:55:03;23.50;;;11.13;;
60014;SDS011;45867;52.480;6.056;2023-11-21T11:57:31;26.42;;;10.70;;
60014;SDS011;45867;52.480;6.056;2023-11-21T12:05:26;27.58;;;11.57;;
60014;SDS011;45867;52.480;6.056;2023-11-21T12:07:54;27.90;;;11.57;;
60014;SDS011;45867;52.480;6.056;2023-11-21T12:10:22;26.95;;;11.95;;
60014;SDS011;45867;52.480;6.056;2023-11-21T12:12:55;25.58;;;11.88;;
60014;SDS011;45867;52.480;6.056;2023-11-21T12:15:37;26.92;;;10.90;;
60014;SDS011;45867;52.480;6.056;2023-11-21T12:18:09;26.08;;;11.80;;
60014;SDS011;45867;52.480;6.056;2023-11-21T12:20:35;25.30;;;11.75;;
60014;SDS011;45867;52.480;6.056;2023-11-21T12:23:05;28.45;;;11.52;;
60014;SDS011;45867;52.480;6.056;2023-11-21T12:25:34;27.05;;;12.00;;
60014;SDS011;45867;52.480;6.056;2023-11-21T12:28:01;24.80;;;12.13;;
60014;SDS011;45867;52.480;6.056;2023-11-21T12:30:29;27.02;;;12.13;;
60014;SDS011;45867;52.480;6.056;2023-11-21T12:32:59;23.45;;;11.48;;
60014;SDS011;45867;52.480;6.056;2023-11-21T12:35:33;27.73;;;11.98;;
60014;SDS011;45867;52.480;6.056;2023-11-21T12:38:01;28.40;;;12.50;;
60014;SDS011;45867;52.480;6.056;2023-11-21T12:40:29;28.50;;;11.98;;
60014;SDS011;45867;52.480;6.056;2023-11-21T12:42:57;24.73;;;11.88;;
60014;SDS011;45867;52.480;6.056;2023-11-21T12:45:30;27.52;;;13.00;;
60014;SDS011;45867;52.480;6.056;2023-11-21T12:50:39;23.08;;;11.63;;
60014;SDS011;45867;52.480;6.056;2023-11-21T12:53:10;26.50;;;12.25;;
60014;SDS011;45867;52.480;6.056;2023-11-21T12:55:38;27.48;;;12.15;;
60014;SDS011;45867;52.480;6.056;2023-11-21T12:58:06;27.33;;;12.40;;
60014;SDS011;45867;52.480;6.056;2023-11-21T13:00:38;27.20;;;12.90;;
60014;SDS011;45867;52.480;6.056;2023-11-21T13:03:07;31.60;;;12.07;;
60014;SDS011;45867;52.480;6.056;2023-11-21T13:05:40;23.25;;;10.48;;
60014;SDS011;45867;52.480;6.056;2023-11-21T13:08:10;27.98;;;12.13;;
60014;SDS011;45867;52.480;6.056;2023-11-21T13:10:39;23.25;;;10.23;;
60014;SDS011;45867;52.480;6.056;2023-11-21T13:13:10;23.80;;;11.02;;
60014;SDS011;45867;52.480;6.056;2023-11-21T13:15:39;23.02;;;11.45;;
60014;SDS011;45867;52.480;6.056;2023-11-21T13:18:06;21.05;;;10.75;;
60014;SDS011;45867;52.480;6.056;2023-11-21T13:20:40;15.65;;;9.13;;
60014;SDS011;45867;52.480;6.056;2023-11-21T13:23:09;14.38;;;8.55;;
60014;SDS011;45867;52.480;6.056;2023-11-21T13:25:36;16.75;;;8.85;;
60014;SDS011;45867;52.480;6.056;2023-11-21T13:28:05;15.35;;;8.60;;
60014;SDS011;45867;52.480;6.056;2023-11-21T13:30:31;17.13;;;9.10;;
60014;SDS011;45867;52.480;6.056;2023-11-21T13:33:02;15.82;;;9.48;;
60014;SDS011;45867;52.480;6.056;2023-11-21T13:35:36;18.73;;;9.90;;
60014;SDS011;45867;52.480;6.056;2023-11-21T13:38:04;16.92;;;10.23;;
60014;SDS011;45867;52.480;6.056;2023-11-21T13:40:33;18.10;;;9.95;;
60014;SDS011;45867;52.480;6.056;2023-11-21T13:43:00;14.65;;;8.52;;
60014;SDS011;45867;52.480;6.056;2023-11-21T13:45:26;18.92;;;9.52;;
60014;SDS011;45867;52.480;6.056;2023-11-21T13:47:53;14.48;;;8.52;;
60014;SDS011;45867;52.480;6.056;2023-11-21T13:50:20;17.20;;;9.32;;
60014;SDS011;45867;52.480;6.056;2023-11-21T13:52:51;14.27;;;8.32;;
60014;SDS011;45867;52.480;6.056;2023-11-21T13:55:20;16.35;;;8.10;;
60014;SDS011;45867;52.480;6.056;2023-11-21T13:57:50;13.93;;;8.48;;
60014;SDS011;45867;52.480;6.056;2023-11-21T14:00:16;12.30;;;7.63;;
60014;SDS011;45867;52.480;6.056;2023-11-21T14:02:44;15.38;;;8.50;;
60014;SDS011;45867;52.480;6.056;2023-11-21T14:05:11;13.38;;;7.72;;
60014;SDS011;45867;52.480;6.056;2023-11-21T14:07:38;16.27;;;8.52;;
60014;SDS011;45867;52.480;6.056;2023-11-21T14:10:06;13.25;;;8.23;;
60014;SDS011;45867;52.480;6.056;2023-11-21T14:12:36;14.23;;;8.05;;
60014;SDS011;45867;52.480;6.056;2023-11-21T14:15:05;12.85;;;7.95;;
60014;SDS011;45867;52.480;6.056;2023-11-21T14:17:32;12.60;;;8.02;;
60014;SDS011;45867;52.480;6.056;2023-11-21T14:19:58;19.20;;;8.32;;
60014;SDS011;45867;52.480;6.056;2023-11-21T14:22:25;12.85;;;7.43;;
60014;SDS011;45867;52.480;6.056;2023-11-21T14:24:52;11.43;;;7.60;;
60014;SDS011;45867;52.480;6.056;2023-11-21T14:27:18;14.05;;;7.63;;
60014;SDS011;45867;52.480;6.056;2023-11-21T14:29:45;12.50;;;7.93;;
60014;SDS011;45867;52.480;6.056;2023-11-21T14:32:12;13.35;;;8.20;;
60014;SDS011;45867;52.480;6.056;2023-11-21T14:34:38;16.13;;;8.43;;
60014;SDS011;45867;52.480;6.056;2023-11-21T14:37:05;15.10;;;8.40;;
60014;SDS011;45867;52.480;6.056;2023-11-21T14:39:32;13.02;;;7.97;;
60014;SDS011;45867;52.480;6.056;2023-11-21T14:42:01;19.90;;;10.32;;
60014;SDS011;45867;52.480;6.056;2023-11-21T14:44:46;14.73;;;8.25;;
60014;SDS011;45867;52.480;6.056;2023-11-21T14:47:15;13.70;;;8.73;;
60014;SDS011;45867;52.480;6.056;2023-11-21T14:49:42;18.27;;;9.40;;
60014;SDS011;45867;52.480;6.056;2023-11-21T14:52:12;17.67;;;8.75;;
60014;SDS011;45867;52.480;6.056;2023-11-21T14:57:30;15.30;;;9.07;;
60014;SDS011;45867;52.480;6.056;2023-11-21T14:59:59;15.55;;;8.98;;